sensor_id;sensor_type;location;lat;lon;timestamp;pressure;altitude;pressure_sealevel;temperature;humidity
45991;BME280;31721;41.740;-88.000;2023-02-19T00:00:26;99290.86;;;5.33;45.16
45991;BME280;31721;41.740;-88.000;2023-02-19T00:02:54;99292.10;;;5.02;45.68
45991;BME280;31721;41.740;-88.000;2023-02-19T00:05:22;99290.88;;;5.23;44.67
45991;BME280;31721;41.740;-88.000;2023-02-19T00:07:50;99281.23;;;5.25;44.60
45991;BME280;31721;41.740;-88.000;2023-02-19T00:10:18;99279.00;;;4.93;45.35
45991;BME280;31721;41.740;-88.000;2023-02-19T00:12:46;99271.28;;;5.07;45.18
45991;BME280;31721;41.740;-88.000;2023-02-19T00:15:13;99262.58;;;4.94;44.99
45991;BME280;31721;41.740;-88.000;2023-02-19T00:17:41;99261.82;;;4.89;45.31
45991;BME280;31721;41.740;-88.000;2023-02-19T00:20:09;99251.32;;;5.02;45.53
45991;BME280;31721;41.740;-88.000;2023-02-19T00:22:37;99244.30;;;4.81;45.91
45991;BME280;31721;41.740;-88.000;2023-02-19T00:25:04;99242.26;;;4.82;45.87
45991;BME280;31721;41.740;-88.000;2023-02-19T00:27:32;99249.15;;;4.25;47.41
45991;BME280;31721;41.740;-88.000;2023-02-19T00:30:00;99254.61;;;4.64;45.72
45991;BME280;31721;41.740;-88.000;2023-02-19T00:32:28;99255.92;;;4.60;46.24
45991;BME280;31721;41.740;-88.000;2023-02-19T00:34:55;99257.42;;;4.47;46.88
45991;BME280;31721;41.740;-88.000;2023-02-19T00:37:23;99255.52;;;4.56;46.01
45991;BME280;31721;41.740;-88.000;2023-02-19T00:39:50;99250.54;;;4.62;46.05
45991;BME280;31721;41.740;-88.000;2023-02-19T00:42:18;99251.90;;;4.50;46.62
45991;BME280;31721;41.740;-88.000;2023-02-19T00:44:46;99251.69;;;4.50;46.42
45991;BME280;31721;41.740;-88.000;2023-02-19T00:47:14;99251.88;;;3.98;47.86
45991;BME280;31721;41.740;-88.000;2023-02-19T00:49:42;99250.29;;;4.35;47.06
45991;BME280;31721;41.740;-88.000;2023-02-19T00:52:10;99243.49;;;4.24;47.25
45991;BME280;31721;41.740;-88.000;2023-02-19T00:54:38;99248.91;;;4.34;46.94
45991;BME280;31721;41.740;-88.000;2023-02-19T00:57:06;99253.00;;;4.31;47.44
45991;BME280;31721;41.740;-88.000;2023-02-19T00:59:33;99253.90;;;4.57;46.92
45991;BME280;31721;41.740;-88.000;2023-02-19T01:02:00;99256.45;;;3.89;48.50
45991;BME280;31721;41.740;-88.000;2023-02-19T01:04:28;99259.04;;;3.82;48.70
45991;BME280;31721;41.740;-88.000;2023-02-19T01:06:55;99266.36;;;4.00;48.25
45991;BME280;31721;41.740;-88.000;2023-02-19T01:09:23;99260.18;;;4.19;47.33
45991;BME280;31721;41.740;-88.000;2023-02-19T01:11:51;99264.98;;;4.13;47.40
45991;BME280;31721;41.740;-88.000;2023-02-19T01:14:19;99267.05;;;3.92;47.90
45991;BME280;31721;41.740;-88.000;2023-02-19T01:16:47;99259.19;;;3.50;48.95
45991;BME280;31721;41.740;-88.000;2023-02-19T01:19:14;99257.56;;;3.90;47.62
45991;BME280;31721;41.740;-88.000;2023-02-19T01:21:42;99254.88;;;4.18;46.97
45991;BME280;31721;41.740;-88.000;2023-02-19T01:24:10;99261.33;;;4.20;47.31
45991;BME280;31721;41.740;-88.000;2023-02-19T01:26:38;99261.47;;;3.88;47.93
45991;BME280;31721;41.740;-88.000;2023-02-19T01:29:06;99255.31;;;4.38;47.19
45991;BME280;31721;41.740;-88.000;2023-02-19T01:31:35;99254.67;;;3.92;48.01
45991;BME280;31721;41.740;-88.000;2023-02-19T01:34:03;99253.99;;;3.69;48.74
45991;BME280;31721;41.740;-88.000;2023-02-19T01:36:32;99257.62;;;3.63;48.53
45991;BME280;31721;41.740;-88.000;2023-02-19T01:39:01;99261.13;;;3.45;48.80
45991;BME280;31721;41.740;-88.000;2023-02-19T01:41:29;99267.27;;;3.73;48.44
45991;BME280;31721;41.740;-88.000;2023-02-19T01:44:00;99274.30;;;3.52;48.45
45991;BME280;31721;41.740;-88.000;2023-02-19T01:46:29;99276.28;;;3.79;47.87
45991;BME280;31721;41.740;-88.000;2023-02-19T01:49:00;99277.04;;;3.28;49.12
45991;BME280;31721;41.740;-88.000;2023-02-19T01:51:30;99277.35;;;3.82;47.82
45991;BME280;31721;41.740;-88.000;2023-02-19T01:54:03;99267.96;;;3.73;47.35
45991;BME280;31721;41.740;-88.000;2023-02-19T01:56:33;99269.11;;;3.48;48.50
45991;BME280;31721;41.740;-88.000;2023-02-19T01:59:03;99268.92;;;3.47;47.92
45991;BME280;31721;41.740;-88.000;2023-02-19T02:01:32;99270.75;;;3.58;47.85
45991;BME280;31721;41.740;-88.000;2023-02-19T02:04:00;99270.25;;;3.55;47.98
45991;BME280;31721;41.740;-88.000;2023-02-19T02:06:29;99269.97;;;3.49;48.01
45991;BME280;31721;41.740;-88.000;2023-02-19T02:08:59;99264.15;;;3.46;48.36
45991;BME280;31721;41.740;-88.000;2023-02-19T02:11:28;99261.39;;;3.39;48.05
45991;BME280;31721;41.740;-88.000;2023-02-19T02:13:57;99258.93;;;3.72;47.84
45991;BME280;31721;41.740;-88.000;2023-02-19T02:16:31;99255.99;;;3.59;47.71
45991;BME280;31721;41.740;-88.000;2023-02-19T02:19:11;99256.37;;;3.51;48.02
45991;BME280;31721;41.740;-88.000;2023-02-19T02:21:55;99263.80;;;3.39;48.23
45991;BME280;31721;41.740;-88.000;2023-02-19T02:24:57;99258.15;;;3.56;47.92
45991;BME280;31721;41.740;-88.000;2023-02-19T02:27:39;99259.00;;;3.84;47.43
45991;BME280;31721;41.740;-88.000;2023-02-19T02:30:24;99251.80;;;3.68;47.91
45991;BME280;31721;41.740;-88.000;2023-02-19T02:32:57;99240.95;;;3.81;47.47
45991;BME280;31721;41.740;-88.000;2023-02-19T02:35:32;99231.20;;;3.74;47.47
45991;BME280;31721;41.740;-88.000;2023-02-19T02:38:05;99220.74;;;3.34;48.28
45991;BME280;31721;41.740;-88.000;2023-02-19T02:40:34;99216.50;;;3.58;47.76
45991;BME280;31721;41.740;-88.000;2023-02-19T02:43:03;99216.27;;;3.45;47.86
45991;BME280;31721;41.740;-88.000;2023-02-19T02:45:32;99211.47;;;2.99;48.70
45991;BME280;31721;41.740;-88.000;2023-02-19T02:48:01;99215.32;;;3.04;49.13
45991;BME280;31721;41.740;-88.000;2023-02-19T02:50:37;99213.75;;;3.03;48.18
45991;BME280;31721;41.740;-88.000;2023-02-19T02:53:10;99218.28;;;3.33;48.28
45991;BME280;31721;41.740;-88.000;2023-02-19T02:55:42;99218.96;;;3.16;48.65
45991;BME280;31721;41.740;-88.000;2023-02-19T02:58:12;99216.18;;;3.31;48.39
45991;BME280;31721;41.740;-88.000;2023-02-19T03:00:43;99212.74;;;3.13;48.98
45991;BME280;31721;41.740;-88.000;2023-02-19T03:03:14;99205.02;;;2.97;48.99
45991;BME280;31721;41.740;-88.000;2023-02-19T03:05:45;99196.59;;;2.46;49.80
45991;BME280;31721;41.740;-88.000;2023-02-19T03:08:20;99197.75;;;2.75;49.27
45991;BME280;31721;41.740;-88.000;2023-02-19T03:10:51;99192.20;;;2.90;48.72
45991;BME280;31721;41.740;-88.000;2023-02-19T03:13:25;99185.18;;;2.85;48.96
45991;BME280;31721;41.740;-88.000;2023-02-19T03:15:56;99183.48;;;2.70;49.41
45991;BME280;31721;41.740;-88.000;2023-02-19T03:18:27;99183.02;;;2.59;49.85
45991;BME280;31721;41.740;-88.000;2023-02-19T03:20:57;99188.98;;;2.68;49.05
45991;BME280;31721;41.740;-88.000;2023-02-19T03:23:29;99189.30;;;2.87;48.99
45991;BME280;31721;41.740;-88.000;2023-02-19T03:25:59;99177.77;;;2.58;49.35
45991;BME280;31721;41.740;-88.000;2023-02-19T03:28:29;99175.31;;;2.61;49.59
45991;BME280;31721;41.740;-88.000;2023-02-19T03:30:58;99172.73;;;2.70;49.31
45991;BME280;31721;41.740;-88.000;2023-02-19T03:33:28;99172.41;;;2.75;49.62
45991;BME280;31721;41.740;-88.000;2023-02-19T03:35:59;99163.41;;;2.36;50.10
45991;BME280;31721;41.740;-88.000;2023-02-19T03:38:33;99161.71;;;2.38;49.30
45991;BME280;31721;41.740;-88.000;2023-02-19T03:41:08;99166.16;;;2.70;49.80
45991;BME280;31721;41.740;-88.000;2023-02-19T03:43:41;99156.21;;;2.96;49.11
45991;BME280;31721;41.740;-88.000;2023-02-19T03:46:14;99149.59;;;2.47;49.62
45991;BME280;31721;41.740;-88.000;2023-02-19T03:48:52;99132.70;;;2.56;49.62
45991;BME280;31721;41.740;-88.000;2023-02-19T03:51:28;99132.99;;;2.41;50.49
45991;BME280;31721;41.740;-88.000;2023-02-19T03:54:07;99122.60;;;2.63;49.56
45991;BME280;31721;41.740;-88.000;2023-02-19T03:56:42;99128.10;;;2.60;49.29
45991;BME280;31721;41.740;-88.000;2023-02-19T03:59:15;99128.90;;;2.32;50.39
45991;BME280;31721;41.740;-88.000;2023-02-19T04:01:47;99120.30;;;2.05;51.04
45991;BME280;31721;41.740;-88.000;2023-02-19T04:04:20;99114.85;;;2.48;49.83
45991;BME280;31721;41.740;-88.000;2023-02-19T04:06:52;99113.84;;;2.63;49.94
45991;BME280;31721;41.740;-88.000;2023-02-19T04:09:22;99100.25;;;2.46;49.97
45991;BME280;31721;41.740;-88.000;2023-02-19T04:11:51;99096.59;;;2.48;49.53
45991;BME280;31721;41.740;-88.000;2023-02-19T04:14:24;99086.54;;;2.37;50.06
45991;BME280;31721;41.740;-88.000;2023-02-19T04:16:57;99068.06;;;2.18;50.22
45991;BME280;31721;41.740;-88.000;2023-02-19T04:19:28;99067.45;;;1.79;51.53
45991;BME280;31721;41.740;-88.000;2023-02-19T04:21:57;99070.37;;;1.89;50.87
45991;BME280;31721;41.740;-88.000;2023-02-19T04:24:30;99082.82;;;2.27;50.38
45991;BME280;31721;41.740;-88.000;2023-02-19T04:27:00;99088.70;;;2.46;49.91
45991;BME280;31721;41.740;-88.000;2023-02-19T04:29:28;99087.89;;;2.30;50.10
45991;BME280;31721;41.740;-88.000;2023-02-19T04:31:56;99088.69;;;2.48;49.74
45991;BME280;31721;41.740;-88.000;2023-02-19T04:34:24;99091.19;;;2.14;50.39
45991;BME280;31721;41.740;-88.000;2023-02-19T04:36:52;99087.51;;;2.40;49.83
45991;BME280;31721;41.740;-88.000;2023-02-19T04:39:19;99083.75;;;2.24;49.91
45991;BME280;31721;41.740;-88.000;2023-02-19T04:41:47;99077.30;;;2.13;50.15
45991;BME280;31721;41.740;-88.000;2023-02-19T04:44:14;99073.43;;;2.34;50.08
45991;BME280;31721;41.740;-88.000;2023-02-19T04:46:43;99066.66;;;2.14;50.49
45991;BME280;31721;41.740;-88.000;2023-02-19T04:49:11;99055.35;;;2.57;49.89
45991;BME280;31721;41.740;-88.000;2023-02-19T04:51:38;99053.97;;;2.09;50.09
45991;BME280;31721;41.740;-88.000;2023-02-19T04:54:07;99052.55;;;2.24;50.08
45991;BME280;31721;41.740;-88.000;2023-02-19T04:56:35;99053.67;;;2.13;50.65
45991;BME280;31721;41.740;-88.000;2023-02-19T04:59:02;99057.40;;;2.16;50.48
45991;BME280;31721;41.740;-88.000;2023-02-19T05:01:30;99045.04;;;1.71;51.71
45991;BME280;31721;41.740;-88.000;2023-02-19T05:03:57;99039.32;;;2.07;50.60
45991;BME280;31721;41.740;-88.000;2023-02-19T05:06:25;99039.66;;;1.90;51.05
45991;BME280;31721;41.740;-88.000;2023-02-19T05:08:53;99042.58;;;1.83;50.95
45991;BME280;31721;41.740;-88.000;2023-02-19T05:11:20;99048.79;;;1.92;51.19
45991;BME280;31721;41.740;-88.000;2023-02-19T05:13:47;99056.37;;;2.41;50.25
45991;BME280;31721;41.740;-88.000;2023-02-19T05:16:15;99060.02;;;2.18;50.45
45991;BME280;31721;41.740;-88.000;2023-02-19T05:18:44;99049.21;;;2.04;50.83
45991;BME280;31721;41.740;-88.000;2023-02-19T05:21:12;99042.33;;;2.05;50.66
45991;BME280;31721;41.740;-88.000;2023-02-19T05:23:40;99028.03;;;1.49;52.09
45991;BME280;31721;41.740;-88.000;2023-02-19T05:26:11;99023.17;;;1.86;51.10
45991;BME280;31721;41.740;-88.000;2023-02-19T05:28:39;99017.69;;;2.26;50.66
45991;BME280;31721;41.740;-88.000;2023-02-19T05:31:09;99009.26;;;2.41;50.08
45991;BME280;31721;41.740;-88.000;2023-02-19T05:33:37;99002.42;;;2.29;50.28
45991;BME280;31721;41.740;-88.000;2023-02-19T05:36:07;98997.40;;;1.92;50.64
45991;BME280;31721;41.740;-88.000;2023-02-19T05:38:35;99002.59;;;1.78;51.04
45991;BME280;31721;41.740;-88.000;2023-02-19T05:41:08;99002.28;;;2.10;50.64
45991;BME280;31721;41.740;-88.000;2023-02-19T05:43:36;98987.36;;;2.10;50.45
45991;BME280;31721;41.740;-88.000;2023-02-19T05:46:04;98986.17;;;2.00;50.94
45991;BME280;31721;41.740;-88.000;2023-02-19T05:48:33;98972.81;;;1.89;50.85
45991;BME280;31721;41.740;-88.000;2023-02-19T05:51:02;98980.43;;;2.06;50.60
45991;BME280;31721;41.740;-88.000;2023-02-19T05:53:30;98966.15;;;1.80;50.75
45991;BME280;31721;41.740;-88.000;2023-02-19T05:55:58;98947.20;;;2.00;50.84
45991;BME280;31721;41.740;-88.000;2023-02-19T05:58:27;98955.70;;;2.01;50.61
45991;BME280;31721;41.740;-88.000;2023-02-19T06:00:55;98968.27;;;2.12;50.53
45991;BME280;31721;41.740;-88.000;2023-02-19T06:03:23;98973.15;;;2.08;50.49
45991;BME280;31721;41.740;-88.000;2023-02-19T06:05:50;98966.65;;;2.09;50.45
45991;BME280;31721;41.740;-88.000;2023-02-19T06:08:18;98951.98;;;2.34;50.05
45991;BME280;31721;41.740;-88.000;2023-02-19T06:10:45;98960.81;;;2.73;49.80
45991;BME280;31721;41.740;-88.000;2023-02-19T06:13:13;98960.29;;;2.27;50.11
45991;BME280;31721;41.740;-88.000;2023-02-19T06:15:40;98965.30;;;2.38;49.91
45991;BME280;31721;41.740;-88.000;2023-02-19T06:18:08;98968.13;;;2.59;49.71
45991;BME280;31721;41.740;-88.000;2023-02-19T06:20:35;98953.69;;;2.66;49.71
45991;BME280;31721;41.740;-88.000;2023-02-19T06:23:02;98946.80;;;2.50;49.95
45991;BME280;31721;41.740;-88.000;2023-02-19T06:25:30;98933.84;;;2.76;49.56
45991;BME280;31721;41.740;-88.000;2023-02-19T06:27:57;98933.20;;;2.33;49.84
45991;BME280;31721;41.740;-88.000;2023-02-19T06:30:25;98931.83;;;2.48;49.49
45991;BME280;31721;41.740;-88.000;2023-02-19T06:32:52;98944.51;;;2.53;49.67
45991;BME280;31721;41.740;-88.000;2023-02-19T06:35:20;98940.67;;;2.59;49.46
45991;BME280;31721;41.740;-88.000;2023-02-19T06:37:48;98914.39;;;2.85;49.42
45991;BME280;31721;41.740;-88.000;2023-02-19T06:40:16;98936.62;;;2.81;49.25
45991;BME280;31721;41.740;-88.000;2023-02-19T06:42:43;98937.93;;;2.90;49.10
45991;BME280;31721;41.740;-88.000;2023-02-19T06:45:11;98939.63;;;2.66;49.29
45991;BME280;31721;41.740;-88.000;2023-02-19T06:47:38;98929.09;;;2.69;49.34
45991;BME280;31721;41.740;-88.000;2023-02-19T06:50:06;98920.37;;;2.67;49.60
45991;BME280;31721;41.740;-88.000;2023-02-19T06:52:34;98915.99;;;2.44;49.61
45991;BME280;31721;41.740;-88.000;2023-02-19T06:55:01;98922.35;;;2.56;49.58
45991;BME280;31721;41.740;-88.000;2023-02-19T06:57:29;98913.05;;;2.30;49.64
45991;BME280;31721;41.740;-88.000;2023-02-19T06:59:57;98899.78;;;2.86;49.22
45991;BME280;31721;41.740;-88.000;2023-02-19T07:02:25;98908.36;;;2.79;49.14
45991;BME280;31721;41.740;-88.000;2023-02-19T07:04:52;98915.22;;;2.62;49.18
45991;BME280;31721;41.740;-88.000;2023-02-19T07:07:20;98938.26;;;2.95;49.13
45991;BME280;31721;41.740;-88.000;2023-02-19T07:09:47;98958.54;;;2.77;49.44
45991;BME280;31721;41.740;-88.000;2023-02-19T07:12:15;98930.95;;;2.88;48.99
45991;BME280;31721;41.740;-88.000;2023-02-19T07:14:42;98936.32;;;2.88;49.25
45991;BME280;31721;41.740;-88.000;2023-02-19T07:17:09;98930.75;;;3.00;49.10
45991;BME280;31721;41.740;-88.000;2023-02-19T07:19:37;98904.26;;;3.07;48.63
45991;BME280;31721;41.740;-88.000;2023-02-19T07:22:04;98900.77;;;3.07;49.50
45991;BME280;31721;41.740;-88.000;2023-02-19T07:24:32;98922.00;;;3.21;48.88
45991;BME280;31721;41.740;-88.000;2023-02-19T07:26:59;98918.68;;;3.46;48.43
45991;BME280;31721;41.740;-88.000;2023-02-19T07:29:27;98902.13;;;3.62;48.47
45991;BME280;31721;41.740;-88.000;2023-02-19T07:31:54;98914.49;;;3.57;48.37
45991;BME280;31721;41.740;-88.000;2023-02-19T07:34:22;98905.92;;;3.26;48.90
45991;BME280;31721;41.740;-88.000;2023-02-19T07:36:49;98875.81;;;3.13;49.25
45991;BME280;31721;41.740;-88.000;2023-02-19T07:39:17;98900.45;;;3.17;49.05
45991;BME280;31721;41.740;-88.000;2023-02-19T07:41:44;98903.47;;;3.06;49.35
45991;BME280;31721;41.740;-88.000;2023-02-19T07:44:11;98909.49;;;3.40;48.84
45991;BME280;31721;41.740;-88.000;2023-02-19T07:46:39;98902.40;;;3.50;48.71
45991;BME280;31721;41.740;-88.000;2023-02-19T07:49:06;98890.24;;;3.56;48.58
45991;BME280;31721;41.740;-88.000;2023-02-19T07:51:34;98891.18;;;3.63;48.47
45991;BME280;31721;41.740;-88.000;2023-02-19T07:54:01;98880.82;;;3.56;48.53
45991;BME280;31721;41.740;-88.000;2023-02-19T07:56:29;98876.78;;;3.74;48.56
45991;BME280;31721;41.740;-88.000;2023-02-19T07:58:56;98875.06;;;3.49;48.90
45991;BME280;31721;41.740;-88.000;2023-02-19T08:01:25;98864.44;;;3.34;48.92
45991;BME280;31721;41.740;-88.000;2023-02-19T08:03:53;98876.36;;;3.06;49.63
45991;BME280;31721;41.740;-88.000;2023-02-19T08:06:20;98855.95;;;3.31;49.33
45991;BME280;31721;41.740;-88.000;2023-02-19T08:08:48;98849.76;;;3.28;49.34
45991;BME280;31721;41.740;-88.000;2023-02-19T08:11:15;98826.74;;;3.10;49.30
45991;BME280;31721;41.740;-88.000;2023-02-19T08:13:43;98817.59;;;2.94;50.03
45991;BME280;31721;41.740;-88.000;2023-02-19T08:16:12;98807.35;;;3.03;49.67
45991;BME280;31721;41.740;-88.000;2023-02-19T08:18:41;98817.61;;;3.19;49.53
45991;BME280;31721;41.740;-88.000;2023-02-19T08:21:09;98815.84;;;3.36;49.55
45991;BME280;31721;41.740;-88.000;2023-02-19T08:23:37;98814.12;;;3.46;49.35
45991;BME280;31721;41.740;-88.000;2023-02-19T08:26:06;98807.19;;;3.35;49.43
45991;BME280;31721;41.740;-88.000;2023-02-19T08:28:34;98782.91;;;3.40;49.46
45991;BME280;31721;41.740;-88.000;2023-02-19T08:31:03;98773.65;;;3.27;49.75
45991;BME280;31721;41.740;-88.000;2023-02-19T08:33:32;98750.11;;;3.13;49.56
45991;BME280;31721;41.740;-88.000;2023-02-19T08:36:02;98721.91;;;3.32;49.56
45991;BME280;31721;41.740;-88.000;2023-02-19T08:38:31;98712.50;;;3.60;49.22
45991;BME280;31721;41.740;-88.000;2023-02-19T08:41:02;98713.34;;;3.53;49.24
45991;BME280;31721;41.740;-88.000;2023-02-19T08:43:30;98721.09;;;3.63;49.04
45991;BME280;31721;41.740;-88.000;2023-02-19T08:45:57;98718.09;;;3.88;48.84
45991;BME280;31721;41.740;-88.000;2023-02-19T08:48:25;98717.41;;;3.90;48.90
45991;BME280;31721;41.740;-88.000;2023-02-19T08:50:55;98718.25;;;3.84;48.78
45991;BME280;31721;41.740;-88.000;2023-02-19T08:53:24;98738.09;;;3.53;49.07
45991;BME280;31721;41.740;-88.000;2023-02-19T08:55:52;98738.68;;;3.58;49.39
45991;BME280;31721;41.740;-88.000;2023-02-19T08:58:20;98740.85;;;3.35;49.51
45991;BME280;31721;41.740;-88.000;2023-02-19T09:00:48;98740.07;;;3.61;49.04
45991;BME280;31721;41.740;-88.000;2023-02-19T09:03:15;98751.30;;;3.77;49.13
45991;BME280;31721;41.740;-88.000;2023-02-19T09:05:43;98747.18;;;3.64;49.01
45991;BME280;31721;41.740;-88.000;2023-02-19T09:08:11;98752.28;;;3.63;49.15
45991;BME280;31721;41.740;-88.000;2023-02-19T09:10:39;98737.62;;;3.52;49.04
45991;BME280;31721;41.740;-88.000;2023-02-19T09:13:07;98734.20;;;3.61;49.36
45991;BME280;31721;41.740;-88.000;2023-02-19T09:15:34;98726.31;;;3.31;49.55
45991;BME280;31721;41.740;-88.000;2023-02-19T09:18:04;98706.88;;;3.68;49.13
45991;BME280;31721;41.740;-88.000;2023-02-19T09:20:32;98697.56;;;3.40;49.45
45991;BME280;31721;41.740;-88.000;2023-02-19T09:22:59;98703.03;;;3.47;49.65
45991;BME280;31721;41.740;-88.000;2023-02-19T09:25:27;98686.22;;;3.06;50.07
45991;BME280;31721;41.740;-88.000;2023-02-19T09:27:55;98681.71;;;3.50;49.45
45991;BME280;31721;41.740;-88.000;2023-02-19T09:30:23;98669.84;;;3.65;49.21
45991;BME280;31721;41.740;-88.000;2023-02-19T09:32:51;98663.60;;;3.38;49.61
45991;BME280;31721;41.740;-88.000;2023-02-19T09:35:18;98665.49;;;3.17;49.99
45991;BME280;31721;41.740;-88.000;2023-02-19T09:37:46;98666.72;;;3.43;49.61
45991;BME280;31721;41.740;-88.000;2023-02-19T09:40:13;98660.43;;;3.25;49.52
45991;BME280;31721;41.740;-88.000;2023-02-19T09:42:42;98658.85;;;3.57;49.38
45991;BME280;31721;41.740;-88.000;2023-02-19T09:45:17;98659.69;;;3.63;49.31
45991;BME280;31721;41.740;-88.000;2023-02-19T09:47:45;98652.31;;;3.62;49.39
45991;BME280;31721;41.740;-88.000;2023-02-19T09:50:17;98647.72;;;3.48;49.42
45991;BME280;31721;41.740;-88.000;2023-02-19T09:52:50;98646.80;;;3.83;49.21
45991;BME280;31721;41.740;-88.000;2023-02-19T09:55:27;98641.86;;;3.73;49.42
45991;BME280;31721;41.740;-88.000;2023-02-19T09:57:56;98634.12;;;3.57;49.69
45991;BME280;31721;41.740;-88.000;2023-02-19T10:00:28;98633.07;;;3.67;49.46
45991;BME280;31721;41.740;-88.000;2023-02-19T10:03:02;98621.22;;;3.49;50.00
45991;BME280;31721;41.740;-88.000;2023-02-19T10:05:31;98618.08;;;3.57;49.81
45991;BME280;31721;41.740;-88.000;2023-02-19T10:08:02;98614.54;;;3.45;49.89
45991;BME280;31721;41.740;-88.000;2023-02-19T10:10:34;98622.70;;;3.40;49.99
45991;BME280;31721;41.740;-88.000;2023-02-19T10:13:13;98620.07;;;3.63;49.92
45991;BME280;31721;41.740;-88.000;2023-02-19T10:15:46;98621.58;;;3.67;49.68
45991;BME280;31721;41.740;-88.000;2023-02-19T10:18:18;98614.01;;;3.61;49.75
45991;BME280;31721;41.740;-88.000;2023-02-19T10:20:48;98610.72;;;3.18;50.41
45991;BME280;31721;41.740;-88.000;2023-02-19T10:23:16;98604.08;;;3.53;49.73
45991;BME280;31721;41.740;-88.000;2023-02-19T10:25:46;98604.02;;;3.37;50.18
45991;BME280;31721;41.740;-88.000;2023-02-19T10:28:17;98600.44;;;3.69;49.81
45991;BME280;31721;41.740;-88.000;2023-02-19T10:30:51;98589.30;;;3.44;50.28
45991;BME280;31721;41.740;-88.000;2023-02-19T10:33:20;98579.46;;;3.64;49.71
45991;BME280;31721;41.740;-88.000;2023-02-19T10:35:54;98581.22;;;3.47;49.90
45991;BME280;31721;41.740;-88.000;2023-02-19T10:38:25;98584.68;;;3.77;49.93
45991;BME280;31721;41.740;-88.000;2023-02-19T10:41:01;98582.02;;;3.27;50.37
45991;BME280;31721;41.740;-88.000;2023-02-19T10:43:34;98586.18;;;3.80;49.87
45991;BME280;31721;41.740;-88.000;2023-02-19T10:46:06;98581.21;;;3.42;50.43
45991;BME280;31721;41.740;-88.000;2023-02-19T10:48:44;98594.47;;;3.59;50.27
45991;BME280;31721;41.740;-88.000;2023-02-19T10:51:13;98592.99;;;3.69;49.95
45991;BME280;31721;41.740;-88.000;2023-02-19T10:53:44;98587.47;;;3.52;50.35
45991;BME280;31721;41.740;-88.000;2023-02-19T10:56:14;98585.72;;;3.69;50.04
45991;BME280;31721;41.740;-88.000;2023-02-19T10:58:43;98570.33;;;3.47;50.47
45991;BME280;31721;41.740;-88.000;2023-02-19T11:01:15;98571.82;;;3.64;50.19
45991;BME280;31721;41.740;-88.000;2023-02-19T11:03:43;98571.34;;;3.60;50.24
45991;BME280;31721;41.740;-88.000;2023-02-19T11:06:13;98572.60;;;3.46;50.47
45991;BME280;31721;41.740;-88.000;2023-02-19T11:08:51;98572.64;;;3.72;50.55
45991;BME280;31721;41.740;-88.000;2023-02-19T11:11:29;98563.62;;;3.66;50.27
45991;BME280;31721;41.740;-88.000;2023-02-19T11:14:01;98557.33;;;3.62;50.32
45991;BME280;31721;41.740;-88.000;2023-02-19T11:16:40;98561.55;;;3.45;50.63
45991;BME280;31721;41.740;-88.000;2023-02-19T11:19:22;98572.71;;;3.56;50.46
45991;BME280;31721;41.740;-88.000;2023-02-19T11:21:50;98563.29;;;3.69;50.52
45991;BME280;31721;41.740;-88.000;2023-02-19T11:24:24;98555.77;;;3.73;50.24
45991;BME280;31721;41.740;-88.000;2023-02-19T11:26:53;98546.06;;;3.60;50.63
45991;BME280;31721;41.740;-88.000;2023-02-19T11:29:23;98538.81;;;3.56;50.68
45991;BME280;31721;41.740;-88.000;2023-02-19T11:31:51;98542.03;;;3.55;50.64
45991;BME280;31721;41.740;-88.000;2023-02-19T11:34:28;98537.81;;;3.75;50.33
45991;BME280;31721;41.740;-88.000;2023-02-19T11:37:13;98535.70;;;3.93;50.22
45991;BME280;31721;41.740;-88.000;2023-02-19T11:39:43;98535.50;;;3.87;50.29
45991;BME280;31721;41.740;-88.000;2023-02-19T11:42:39;98541.04;;;3.84;50.20
45991;BME280;31721;41.740;-88.000;2023-02-19T11:45:18;98540.40;;;3.76;50.64
45991;BME280;31721;41.740;-88.000;2023-02-19T11:49:04;98547.33;;;3.71;50.48
45991;BME280;31721;41.740;-88.000;2023-02-19T11:51:49;98552.88;;;3.84;50.25
45991;BME280;31721;41.740;-88.000;2023-02-19T11:54:31;98546.64;;;3.68;50.65
45991;BME280;31721;41.740;-88.000;2023-02-19T11:57:10;98544.93;;;3.29;51.02
45991;BME280;31721;41.740;-88.000;2023-02-19T11:59:48;98534.90;;;3.90;50.33
45991;BME280;31721;41.740;-88.000;2023-02-19T12:02:32;98537.09;;;3.64;50.63
45991;BME280;31721;41.740;-88.000;2023-02-19T12:05:19;98545.04;;;3.86;50.26
45991;BME280;31721;41.740;-88.000;2023-02-19T12:08:08;98548.43;;;3.48;50.90
45991;BME280;31721;41.740;-88.000;2023-02-19T12:10:51;98550.49;;;3.63;50.71
45991;BME280;31721;41.740;-88.000;2023-02-19T12:13:28;98552.18;;;3.78;50.33
45991;BME280;31721;41.740;-88.000;2023-02-19T12:16:28;98544.85;;;3.62;50.32
45991;BME280;31721;41.740;-88.000;2023-02-19T12:19:13;98537.96;;;3.30;51.38
45991;BME280;31721;41.740;-88.000;2023-02-19T12:21:55;98538.03;;;3.38;50.86
45991;BME280;31721;41.740;-88.000;2023-02-19T12:24:45;98528.96;;;3.87;50.21
45991;BME280;31721;41.740;-88.000;2023-02-19T12:27:27;98515.92;;;3.91;50.06
45991;BME280;31721;41.740;-88.000;2023-02-19T12:30:20;98516.27;;;3.75;50.27
45991;BME280;31721;41.740;-88.000;2023-02-19T12:33:08;98517.49;;;3.63;50.32
45991;BME280;31721;41.740;-88.000;2023-02-19T12:35:46;98516.23;;;3.71;50.40
45991;BME280;31721;41.740;-88.000;2023-02-19T12:38:21;98519.65;;;3.81;50.48
45991;BME280;31721;41.740;-88.000;2023-02-19T12:41:02;98518.03;;;4.09;50.10
45991;BME280;31721;41.740;-88.000;2023-02-19T12:43:34;98516.22;;;3.82;50.16
45991;BME280;31721;41.740;-88.000;2023-02-19T12:46:09;98514.62;;;3.95;49.95
45991;BME280;31721;41.740;-88.000;2023-02-19T12:48:43;98513.74;;;3.84;49.90
45991;BME280;31721;41.740;-88.000;2023-02-19T12:51:18;98509.84;;;3.75;49.88
45991;BME280;31721;41.740;-88.000;2023-02-19T12:53:49;98509.45;;;3.99;49.69
45991;BME280;31721;41.740;-88.000;2023-02-19T12:56:22;98502.97;;;3.77;50.16
45991;BME280;31721;41.740;-88.000;2023-02-19T12:58:53;98505.21;;;3.79;50.08
45991;BME280;31721;41.740;-88.000;2023-02-19T13:01:26;98497.00;;;3.73;50.17
45991;BME280;31721;41.740;-88.000;2023-02-19T13:04:10;98498.91;;;3.75;50.32
45991;BME280;31721;41.740;-88.000;2023-02-19T13:06:43;98504.94;;;3.76;50.07
45991;BME280;31721;41.740;-88.000;2023-02-19T13:09:16;98505.42;;;3.96;50.16